createdAt,value
2023-05-21T00:04:42.171Z,3.07
2023-05-21T00:09:45.206Z,4.20
2023-05-21T00:14:48.456Z,3.97
2023-05-21T00:19:53.203Z,5.80
2023-05-21T00:24:56.138Z,3.40
2023-05-21T00:29:59.263Z,3.00
2023-05-21T00:35:04.178Z,2.53
2023-05-21T00:40:09.379Z,3.00
2023-05-21T00:45:12.586Z,2.50
2023-05-21T00:50:17.659Z,2.73
2023-05-21T00:55:20.890Z,2.50
2023-05-21T01:00:24.714Z,2.60
2023-05-21T01:05:29.598Z,2.80
2023-05-21T01:10:32.720Z,4.70
2023-05-21T01:15:38.093Z,4.07
2023-05-21T01:20:48.321Z,4.90
2023-05-21T01:25:53.133Z,3.80
2023-05-21T01:30:59.591Z,2.80
2023-05-21T01:36:09.276Z,5.50
2023-05-21T01:41:15.379Z,5.73
2023-05-21T01:46:22.307Z,6.43
2023-05-21T01:51:26.104Z,5.33
2023-05-21T01:56:33.966Z,3.47
2023-05-21T02:01:37.598Z,3.97
2023-05-21T02:06:41.856Z,4.83
2023-05-21T02:11:46.328Z,3.73
2023-05-21T02:16:49.877Z,3.37
2023-05-21T02:21:53.050Z,4.90
2023-05-21T02:26:58.589Z,3.58
2023-05-21T02:32:01.775Z,3.83
2023-05-21T02:37:04.960Z,3.63
2023-05-21T02:42:09.432Z,4.33
2023-05-21T02:47:12.803Z,3.90
2023-05-21T02:52:15.977Z,3.37
2023-05-21T02:57:20.676Z,3.20
2023-05-21T03:02:24.404Z,4.07
2023-05-21T03:07:27.672Z,5.23
2023-05-21T03:12:32.189Z,5.07
2023-05-21T03:17:35.603Z,4.73
2023-05-21T03:22:38.596Z,4.50
2023-05-21T03:27:52.161Z,4.60
2023-05-21T03:33:17.425Z,4.00
2023-05-21T03:38:24.971Z,3.83
2023-05-21T03:43:29.678Z,9.10
2023-05-21T03:48:32.848Z,4.00
2023-05-21T03:53:37.005Z,6.57
2023-05-21T03:58:41.785Z,4.00
2023-05-21T04:03:45.080Z,6.70
2023-05-21T04:08:48.463Z,5.13
2023-05-21T04:13:53.033Z,8.97
2023-05-21T04:18:56.849Z,4.10
2023-05-21T04:24:02.783Z,4.97
2023-05-21T04:29:25.992Z,5.10
2023-05-21T04:34:29.820Z,4.40
2023-05-21T04:39:32.841Z,4.17
2023-05-21T04:44:37.379Z,4.00
2023-05-21T04:49:40.592Z,3.83
2023-05-21T04:54:46.168Z,5.13
2023-05-21T04:59:50.813Z,6.00
2023-05-21T05:04:53.929Z,4.33
2023-05-21T05:09:57.010Z,5.10
2023-05-21T05:15:01.613Z,4.27
2023-05-21T05:20:06.207Z,4.95
2023-05-21T05:25:10.702Z,4.80
2023-05-21T05:30:15.608Z,4.68
2023-05-21T05:35:18.853Z,4.53
2023-05-21T05:40:22.073Z,5.85
2023-05-21T05:45:27.248Z,3.83
2023-05-21T05:50:31.046Z,7.28
2023-05-21T05:55:34.205Z,4.25
2023-05-21T06:00:39.222Z,4.25
2023-05-21T06:05:42.542Z,5.15
2023-05-21T06:10:45.786Z,5.63
2023-05-21T06:15:50.470Z,4.28
2023-05-21T06:20:54.127Z,7.25
2023-05-21T06:25:59.136Z,6.68
2023-05-21T06:31:04.455Z,4.40
2023-05-21T06:36:09.109Z,4.40
2023-05-21T06:41:12.357Z,4.68
2023-05-21T06:46:30.241Z,5.93
2023-05-21T06:51:33.531Z,4.18
2023-05-21T06:56:37.324Z,4.32
2023-05-21T07:01:43.994Z,5.53
2023-05-21T07:06:49.732Z,4.53
2023-05-21T07:11:53.366Z,5.18
2023-05-21T07:16:59.042Z,9.40
2023-05-21T07:22:02.252Z,6.35
2023-05-21T07:27:14.372Z,6.68
2023-05-21T07:32:29.778Z,6.13
2023-05-21T07:37:33.407Z,6.38
2023-05-21T07:42:36.673Z,8.23
2023-05-21T07:47:41.508Z,7.50
2023-05-21T07:52:44.638Z,5.07
2023-05-21T07:57:47.794Z,5.38
2023-05-21T08:02:54.794Z,5.10
2023-05-21T08:07:57.983Z,5.85
2023-05-21T08:13:01.333Z,5.38
2023-05-21T08:18:06.209Z,5.85
2023-05-21T08:23:10.524Z,5.57
2023-05-21T08:28:18.463Z,5.93
2023-05-21T08:33:23.751Z,6.03
2023-05-21T08:38:28.671Z,6.43
2023-05-21T08:43:56.775Z,6.28
2023-05-21T08:49:03.848Z,6.53
2023-05-21T08:54:08.941Z,6.03
2023-05-21T08:59:12.462Z,5.80
2023-05-21T09:04:21.692Z,8.02
2023-05-21T09:09:33.738Z,6.90
2023-05-21T09:14:39.275Z,8.48
2023-05-21T09:20:13.504Z,5.50
2023-05-21T09:25:23.006Z,8.95
2023-05-21T09:30:29.562Z,5.15
2023-05-21T09:35:45.248Z,4.93
2023-05-21T09:40:50.453Z,6.05
2023-05-21T09:45:56.120Z,7.47
2023-05-21T09:51:15.044Z,6.32
2023-05-21T09:56:23.535Z,6.50
2023-05-21T10:01:26.748Z,5.13
2023-05-21T10:06:33.795Z,6.20
2023-05-21T10:11:37.804Z,7.00
2023-05-21T10:16:41.893Z,4.70
2023-05-21T10:21:47.746Z,7.72
2023-05-21T10:26:52.407Z,6.10
2023-05-21T10:31:56.053Z,6.95
2023-05-21T10:37:04.108Z,6.25
2023-05-21T10:42:19.902Z,8.10
2023-05-21T10:47:48.717Z,8.30
2023-05-21T10:53:09.962Z,6.00
2023-05-21T10:58:45.446Z,7.95
2023-05-21T11:03:49.132Z,5.78
2023-05-21T11:08:55.477Z,8.38
2023-05-21T11:13:59.814Z,5.75
2023-05-21T11:19:03.743Z,9.60
2023-05-21T11:24:11.099Z,6.97
2023-05-21T11:29:14.840Z,9.18
2023-05-21T11:34:21.923Z,6.28
2023-05-21T11:39:27.050Z,5.35
2023-05-21T11:44:50.947Z,7.82
2023-05-21T11:49:54.270Z,6.95
2023-05-21T11:55:00.061Z,9.00
2023-05-21T12:00:12.787Z,9.93
2023-05-21T12:05:16.020Z,7.85
2023-05-21T12:10:24.351Z,6.25
2023-05-21T12:15:28.153Z,6.30
2023-05-21T12:20:31.297Z,8.52
2023-05-21T12:25:35.717Z,7.35
2023-05-21T12:30:39.479Z,5.88
2023-05-21T12:35:42.533Z,6.10
2023-05-21T12:40:46.972Z,5.95
2023-05-21T12:45:50.021Z,6.95
2023-05-21T12:50:53.664Z,6.10
2023-05-21T12:56:09.282Z,8.02
2023-05-21T13:01:13.412Z,6.95
2023-05-21T13:06:16.494Z,7.47
2023-05-21T13:11:21.293Z,6.53
2023-05-21T13:16:24.517Z,8.43
2023-05-21T13:21:27.605Z,6.28
2023-05-21T13:26:32.196Z,5.55
2023-05-21T13:31:35.346Z,6.00
2023-05-21T13:36:38.549Z,6.03
2023-05-21T13:41:43.870Z,9.20
2023-05-21T13:46:47.019Z,8.80
2023-05-21T13:51:50.023Z,7.82
2023-05-21T13:56:54.664Z,7.10
2023-05-21T14:01:58.232Z,5.55
2023-05-21T14:07:01.346Z,5.93
2023-05-21T14:12:06.861Z,5.38
2023-05-21T14:17:10.031Z,5.68
2023-05-21T14:22:13.345Z,5.43
2023-05-21T14:27:18.028Z,7.85
2023-05-21T14:32:21.762Z,8.73
2023-05-21T14:37:24.928Z,10.13
2023-05-21T14:42:30.276Z,7.95
2023-05-21T14:47:33.880Z,12.45
2023-05-21T14:52:36.898Z,10.75
2023-05-21T14:57:41.474Z,5.93
2023-05-21T15:02:44.979Z,9.52
2023-05-21T15:07:48.407Z,9.27
2023-05-21T15:12:53.121Z,5.40
2023-05-21T15:17:57.801Z,9.20
2023-05-21T15:28:08.821Z,7.63
2023-05-21T15:33:12.863Z,5.75
2023-05-21T15:38:15.912Z,10.38
2023-05-21T15:43:20.349Z,10.63
2023-05-21T15:48:23.538Z,5.00
2023-05-21T15:53:26.580Z,9.82
2023-05-21T15:58:31.551Z,6.50
2023-05-21T16:03:34.808Z,6.60
2023-05-21T16:08:38.353Z,6.95
2023-05-21T16:13:42.800Z,8.55
2023-05-21T16:18:45.903Z,4.38
2023-05-21T16:23:50.505Z,10.23
2023-05-21T16:28:55.387Z,7.00
2023-05-21T16:33:58.445Z,6.78
2023-05-21T16:39:01.619Z,5.53
2023-05-21T16:44:06.176Z,7.13
2023-05-21T16:49:09.625Z,4.88
2023-05-21T16:54:12.787Z,6.40
2023-05-21T16:59:18.428Z,6.18
2023-05-21T17:04:21.664Z,8.50
2023-05-21T17:09:24.826Z,7.95
2023-05-21T17:19:35.735Z,6.72
2023-05-21T17:24:41.754Z,7.32
2023-05-21T17:29:46.648Z,8.07
2023-05-21T17:34:50.208Z,6.63
2023-05-21T17:39:53.421Z,5.47
2023-05-21T17:44:58.080Z,6.10
2023-05-21T17:50:01.107Z,5.75
2023-05-21T17:55:04.665Z,8.32
2023-05-21T18:00:10.714Z,6.40
2023-05-21T18:05:16.930Z,6.47
2023-05-21T18:10:20.416Z,5.82
2023-05-21T18:15:24.881Z,5.90
2023-05-21T18:20:28.106Z,8.38
2023-05-21T18:25:31.488Z,6.03
2023-05-21T18:30:36.183Z,8.18
2023-05-21T18:35:39.809Z,6.45
2023-05-21T18:40:42.906Z,9.50
2023-05-21T18:45:48.697Z,6.40
2023-05-21T18:50:53.420Z,10.77
2023-05-21T18:55:56.490Z,7.70
2023-05-21T19:01:01.594Z,9.23
2023-05-21T19:06:05.676Z,8.88
2023-05-21T19:11:08.943Z,9.88
2023-05-21T19:16:13.431Z,8.63
2023-05-21T19:21:16.672Z,13.80
2023-05-21T19:26:19.709Z,9.65
2023-05-21T19:31:25.401Z,10.27
2023-05-21T19:36:34.991Z,14.07
2023-05-21T19:41:45.223Z,12.10
2023-05-21T19:46:50.537Z,11.63
2023-05-21T19:51:54.893Z,10.70
2023-05-21T19:56:58.692Z,11.15
2023-05-21T20:02:03.138Z,14.57
2023-05-21T20:07:06.557Z,14.05
2023-05-21T20:12:10.376Z,10.93
2023-05-21T20:17:15.655Z,11.05
2023-05-21T20:22:18.884Z,11.65
2023-05-21T20:27:22.069Z,13.20
2023-05-21T20:32:27.077Z,10.27
2023-05-21T20:37:32.443Z,10.90
2023-05-21T20:42:36.524Z,12.52
2023-05-21T20:47:41.318Z,11.20
2023-05-21T20:52:47.139Z,10.50
2023-05-21T20:57:50.931Z,12.40
2023-05-21T21:02:58.069Z,10.30
2023-05-21T21:08:02.582Z,10.75
2023-05-21T21:13:07.246Z,13.10
2023-05-21T21:18:12.593Z,12.88
2023-05-21T21:23:16.183Z,15.88
2023-05-21T21:28:19.808Z,13.65
2023-05-21T21:33:24.655Z,12.25
2023-05-21T21:38:27.882Z,12.07
2023-05-21T21:43:30.889Z,13.52
2023-05-21T21:48:35.510Z,12.10
2023-05-21T21:53:38.528Z,11.55
2023-05-21T21:58:41.561Z,10.18
2023-05-21T22:03:46.045Z,15.60
2023-05-21T22:08:49.244Z,14.25
2023-05-21T22:13:53.791Z,13.07
2023-05-21T22:18:59.095Z,17.63
2023-05-21T22:24:02.093Z,15.45
2023-05-21T22:29:05.222Z,13.40
2023-05-21T22:34:09.700Z,16.93
2023-05-21T22:39:12.816Z,15.35
2023-05-21T22:44:15.967Z,12.40
2023-05-21T22:49:21.098Z,15.40
2023-05-21T22:54:24.196Z,18.37
2023-05-21T22:59:27.284Z,17.97
2023-05-21T23:04:43.416Z,19.42
2023-05-21T23:09:47.940Z,18.97
2023-05-21T23:14:51.209Z,15.32
2023-05-21T23:19:56.310Z,15.90
2023-05-21T23:24:59.481Z,17.33
2023-05-21T23:30:02.455Z,19.87
2023-05-21T23:35:08.395Z,19.10
2023-05-21T23:40:12.862Z,15.77
2023-05-21T23:45:17.289Z,15.43
2023-05-21T23:50:21.618Z,21.52
2023-05-21T23:55:24.588Z,17.35
